Luck, Wisconsin
Current Conditions -  °F | °C
As of 7:35 AM on Saturday 20 Dec 2014 (Local Time) from KRZN Reporting Station
Overcast Overcast  
Wind Chill: -5°   Ceiling: 1300
Heat Index: -2°   Visibility: 7mi
Dew Point: -4°   Wind: 6mph
Humidity: 84%   Direction: 160°SSE
Pressure: 30.15"   Gusts: NA
Location:  45.58°N, 92.48°W
Report Text: KRZN 201335Z AUTO 16005KT 7SM OVC013 M02/M04 A3015 RMK AO2 T10201044
Loading
Personal Weather Stations






























Interactive Weather Map New forecast layout! Learn more

10-Day Weather Forecast

Advertisements
Track Severe Weather on mobile